createdAt,value
2024-02-22T00:00:20.161Z,99.99
2024-02-22T00:01:20.204Z,99.99
2024-02-22T00:02:20.173Z,99.99
2024-02-22T00:03:20.505Z,99.99
2024-02-22T00:04:20.153Z,99.99
2024-02-22T00:05:20.386Z,99.99
2024-02-22T00:06:20.140Z,99.99
2024-02-22T00:07:20.077Z,99.99
2024-02-22T00:08:20.121Z,99.99
2024-02-22T00:09:20.111Z,99.99
2024-02-22T00:10:20.372Z,99.99
2024-02-22T00:11:20.087Z,99.99
2024-02-22T00:12:20.033Z,99.99
2024-02-22T00:13:20.037Z,99.99
2024-02-22T00:14:20.084Z,99.99
2024-02-22T00:15:20.066Z,99.99
2024-02-22T00:16:21.853Z,99.99
2024-02-22T00:17:20.366Z,99.99
2024-02-22T00:18:20.075Z,99.99
2024-02-22T00:19:20.049Z,99.99
2024-02-22T00:20:20.004Z,99.99
2024-02-22T00:21:19.977Z,99.99
2024-02-22T00:22:19.937Z,99.99
2024-02-22T00:23:20.006Z,99.99
2024-02-22T00:24:20.200Z,99.99
2024-02-22T00:25:21.650Z,99.99
2024-02-22T00:26:19.947Z,99.99
2024-02-22T00:27:19.918Z,99.99
2024-02-22T00:28:19.871Z,99.99
2024-02-22T00:29:19.880Z,99.99
2024-02-22T00:30:22.190Z,99.99
2024-02-22T00:31:20.112Z,99.99
2024-02-22T00:32:19.867Z,99.99
2024-02-22T00:33:19.853Z,99.99
2024-02-22T00:34:19.860Z,99.99
2024-02-22T00:35:19.809Z,99.99
2024-02-22T00:36:19.794Z,99.99
2024-02-22T00:37:19.777Z,99.99
2024-02-22T00:38:20.099Z,99.99
2024-02-22T00:39:19.915Z,99.99
2024-02-22T00:40:19.742Z,99.99
2024-02-22T00:41:22.585Z,99.99
2024-02-22T00:42:19.720Z,99.99
2024-02-22T00:43:19.714Z,99.99
2024-02-22T00:44:19.755Z,99.99
2024-02-22T00:45:20.037Z,99.99
2024-02-22T00:46:19.695Z,99.99
2024-02-22T00:47:19.727Z,99.99
2024-02-22T00:48:19.750Z,99.99
2024-02-22T00:49:19.803Z,99.99
2024-02-22T00:50:19.699Z,99.99
2024-02-22T00:51:19.671Z,99.99
2024-02-22T00:52:19.885Z,99.99
2024-02-22T00:53:19.643Z,99.99
2024-02-22T00:54:19.595Z,99.99
2024-02-22T00:55:19.576Z,99.99
2024-02-22T00:56:19.610Z,99.99
2024-02-22T00:57:19.595Z,99.99
2024-02-22T00:58:19.556Z,99.99
2024-02-22T00:59:19.880Z,99.99
2024-02-22T01:00:19.539Z,99.99
2024-02-22T01:01:19.581Z,99.99
2024-02-22T01:02:19.596Z,99.99
2024-02-22T01:03:19.536Z,99.99
2024-02-22T01:04:19.622Z,99.99
2024-02-22T01:05:19.661Z,99.99
2024-02-22T01:06:19.819Z,99.99
2024-02-22T01:07:19.462Z,99.99
2024-02-22T01:08:19.528Z,99.99
2024-02-22T01:09:19.479Z,99.99
2024-02-22T01:10:19.426Z,99.99
2024-02-22T01:11:19.627Z,99.99
2024-02-22T01:12:19.401Z,99.99
2024-02-22T01:13:19.668Z,99.99
2024-02-22T01:14:19.456Z,99.99
2024-02-22T01:15:19.418Z,99.99
2024-02-22T01:16:19.366Z,99.99
2024-02-22T01:17:19.444Z,99.99
2024-02-22T01:18:19.446Z,99.99
2024-02-22T01:19:19.473Z,99.99
2024-02-22T01:20:19.745Z,99.99
2024-02-22T01:21:19.357Z,99.99
2024-02-22T01:22:19.311Z,99.99
2024-02-22T01:23:19.396Z,99.99
2024-02-22T01:24:19.303Z,99.99
2024-02-22T01:25:19.270Z,99.99
2024-02-22T01:26:19.389Z,99.99
2024-02-22T01:27:19.595Z,99.99
2024-02-22T01:28:19.244Z,99.99
2024-02-22T01:29:19.272Z,99.99
2024-02-22T01:30:19.247Z,99.99
2024-02-22T01:31:19.210Z,99.99
2024-02-22T01:32:19.270Z,99.99
2024-02-22T01:33:19.362Z,99.99
2024-02-22T01:34:19.591Z,99.99
2024-02-22T01:35:19.293Z,99.99
2024-02-22T01:36:19.150Z,99.99
2024-02-22T01:37:19.148Z,99.99
2024-02-22T01:38:19.300Z,99.99
2024-02-22T01:39:19.239Z,99.99
2024-02-22T01:40:19.112Z,99.99
2024-02-22T01:41:19.441Z,99.99
2024-02-22T01:42:19.088Z,99.99
2024-02-22T01:43:19.100Z,99.99
2024-02-22T01:44:19.203Z,99.99
2024-02-22T01:45:19.119Z,99.99
2024-02-22T01:46:19.062Z,99.99
2024-02-22T01:47:19.084Z,99.99
2024-02-22T01:48:19.511Z,99.99
2024-02-22T01:49:19.065Z,99.99
2024-02-22T01:50:19.301Z,99.99
2024-02-22T01:51:19.069Z,99.99
2024-02-22T01:52:18.982Z,99.99
2024-02-22T01:53:19.095Z,99.99
2024-02-22T01:54:18.966Z,99.99
2024-02-22T01:55:19.416Z,99.99
2024-02-22T01:56:19.097Z,99.99
2024-02-22T01:57:18.997Z,99.99
2024-02-22T01:58:18.911Z,99.99
2024-02-22T01:59:19.087Z,99.99
2024-02-22T02:00:19.520Z,99.99
2024-02-22T02:01:18.930Z,99.99
2024-02-22T02:02:19.202Z,99.99
2024-02-22T02:03:18.993Z,99.99
2024-02-22T02:04:18.855Z,99.99
2024-02-22T02:05:19.019Z,99.99
2024-02-22T02:06:18.925Z,99.99
2024-02-22T02:07:18.836Z,99.99
2024-02-22T02:08:18.944Z,99.99
2024-02-22T02:09:19.152Z,99.99
2024-02-22T02:10:18.828Z,99.99
2024-02-22T02:11:18.934Z,99.99
2024-02-22T02:12:18.774Z,99.99
2024-02-22T02:13:18.780Z,99.99
2024-02-22T02:14:18.829Z,99.99
2024-02-22T02:15:18.801Z,99.99
2024-02-22T02:16:19.079Z,99.99
2024-02-22T02:17:19.622Z,99.99
2024-02-22T02:18:18.876Z,99.99
2024-02-22T02:19:18.747Z,99.99
2024-02-22T02:20:18.802Z,99.99
2024-02-22T02:21:18.750Z,99.99
2024-02-22T02:22:18.675Z,99.99
2024-02-22T02:23:19.014Z,99.99
2024-02-22T02:24:18.657Z,99.99
2024-02-22T02:25:18.931Z,99.99
2024-02-22T02:26:18.723Z,99.99
2024-02-22T02:27:18.713Z,99.99
2024-02-22T02:28:18.605Z,99.99
2024-02-22T02:29:18.682Z,99.99
2024-02-22T02:30:18.901Z,99.99
2024-02-22T02:31:18.580Z,99.99
2024-02-22T02:32:18.648Z,99.99
2024-02-22T02:33:18.687Z,99.99
2024-02-22T02:34:18.569Z,99.99
2024-02-22T02:35:18.595Z,99.99
2024-02-22T02:36:18.532Z,99.99
2024-02-22T02:37:18.835Z,99.99
2024-02-22T02:38:18.537Z,99.99
2024-02-22T02:39:18.580Z,99.99
2024-02-22T02:40:18.485Z,99.99
2024-02-22T02:41:18.534Z,99.99
2024-02-22T02:42:18.499Z,99.99
2024-02-22T02:43:18.486Z,99.99
2024-02-22T02:44:18.805Z,99.99
2024-02-22T02:45:18.533Z,99.99
2024-02-22T02:46:18.417Z,99.99
2024-02-22T02:47:18.514Z,99.99
2024-02-22T02:48:18.397Z,99.99
2024-02-22T02:49:18.489Z,99.99
2024-02-22T02:50:18.436Z,99.99
2024-02-22T02:51:18.437Z,99.99
2024-02-22T02:52:18.370Z,99.99
2024-02-22T02:53:18.473Z,99.99
2024-02-22T02:54:18.345Z,99.99
2024-02-22T02:55:18.339Z,99.99
2024-02-22T02:56:18.413Z,99.99
2024-02-22T02:57:18.690Z,99.99
2024-02-22T02:58:18.377Z,99.99
2024-02-22T02:59:18.385Z,99.99
2024-02-22T03:00:18.274Z,99.99
2024-02-22T03:01:18.326Z,99.99
2024-02-22T03:02:18.412Z,99.99
2024-02-22T03:03:18.313Z,99.99
2024-02-22T03:04:18.572Z,99.99
2024-02-22T03:05:18.338Z,99.99
2024-02-22T03:06:18.355Z,99.99
2024-02-22T03:07:18.210Z,99.99
2024-02-22T03:08:18.291Z,99.99
2024-02-22T03:09:18.244Z,99.99
2024-02-22T03:10:18.186Z,99.99
2024-02-22T03:11:18.542Z,99.99
2024-02-22T03:12:18.178Z,99.99
2024-02-22T03:13:18.155Z,99.99
2024-02-22T03:14:18.183Z,99.99
2024-02-22T03:15:18.194Z,99.99
2024-02-22T03:16:18.111Z,99.99
2024-02-22T03:17:18.164Z,99.99
2024-02-22T03:18:18.426Z,99.99
2024-02-22T03:19:18.096Z,99.99
2024-02-22T03:20:18.105Z,99.99
2024-02-22T03:21:18.120Z,99.99
2024-02-22T03:22:18.042Z,99.99
2024-02-22T03:23:18.121Z,99.99
2024-02-22T03:24:18.054Z,99.99
2024-02-22T03:25:18.297Z,99.99
2024-02-22T03:26:18.074Z,99.99
2024-02-22T03:27:18.069Z,99.99
2024-02-22T03:28:18.005Z,99.99
2024-02-22T03:29:18.102Z,99.99
2024-02-22T03:30:17.962Z,99.99
2024-02-22T03:31:17.958Z,99.99
2024-02-22T03:32:18.258Z,99.99
2024-02-22T03:33:18.051Z,99.99
2024-02-22T03:34:17.943Z,99.99
2024-02-22T03:35:17.952Z,99.99
2024-02-22T03:36:17.901Z,99.99
2024-02-22T03:37:17.911Z,99.99
2024-02-22T03:38:17.950Z,99.99
2024-02-22T03:39:18.210Z,99.99
2024-02-22T03:40:17.865Z,99.99
2024-02-22T03:41:17.910Z,99.99
2024-02-22T03:42:17.836Z,99.99
2024-02-22T03:43:17.836Z,99.99
2024-02-22T03:44:17.877Z,99.99
2024-02-22T03:45:17.874Z,99.99
2024-02-22T03:46:17.801Z,99.99
2024-02-22T03:47:17.860Z,99.99
2024-02-22T03:48:17.918Z,99.99
2024-02-22T03:49:17.819Z,99.99
2024-02-22T03:50:17.808Z,99.99
2024-02-22T03:51:18.119Z,99.99
2024-02-22T03:52:17.726Z,99.99
2024-02-22T03:53:17.758Z,99.99
2024-02-22T03:54:17.710Z,99.99
2024-02-22T03:55:17.706Z,99.99
2024-02-22T03:56:17.713Z,99.99
2024-02-22T03:57:18.204Z,99.99
2024-02-22T03:58:17.666Z,99.99
2024-02-22T03:59:17.774Z,99.99
2024-02-22T04:00:17.658Z,99.99
2024-02-22T04:01:17.729Z,99.99
2024-02-22T04:02:17.713Z,99.99
2024-02-22T04:03:17.684Z,99.99
2024-02-22T04:04:17.922Z,99.99
2024-02-22T04:05:17.685Z,99.99
2024-02-22T04:06:17.605Z,99.99
2024-02-22T04:07:17.583Z,99.99
2024-02-22T04:08:17.614Z,99.99
2024-02-22T04:09:17.641Z,99.99
2024-02-22T04:10:17.539Z,99.99
2024-02-22T04:11:17.886Z,99.99
2024-02-22T04:12:17.522Z,99.99
2024-02-22T04:13:17.525Z,99.99
2024-02-22T04:14:17.577Z,99.99
2024-02-22T04:15:17.588Z,99.99
2024-02-22T04:16:17.476Z,99.99
2024-02-22T04:17:17.493Z,99.99
2024-02-22T04:18:17.917Z,99.99
2024-02-22T04:19:53.351Z,99.99
2024-02-22T04:21:32.844Z,99.99
2024-02-22T04:22:33.844Z,99.99
2024-02-22T04:23:33.783Z,99.99
2024-02-22T04:24:33.787Z,99.99
2024-02-22T04:25:33.778Z,99.99
2024-02-22T04:26:33.801Z,99.99
2024-02-22T04:27:34.018Z,99.99
2024-02-22T04:28:33.754Z,99.99
2024-02-22T04:29:33.733Z,99.99
2024-02-22T04:30:33.703Z,99.99
2024-02-22T04:31:33.732Z,99.99
2024-02-22T04:32:33.760Z,99.99
2024-02-22T04:33:33.748Z,99.99
2024-02-22T04:34:34.090Z,99.99
2024-02-22T04:35:33.695Z,99.99
2024-02-22T04:36:33.628Z,99.99
2024-02-22T04:37:33.658Z,99.99
2024-02-22T04:38:33.746Z,99.99
2024-02-22T04:39:33.610Z,99.99
2024-02-22T04:40:33.684Z,99.99
2024-02-22T04:41:33.595Z,99.99
2024-02-22T04:42:33.565Z,99.99
2024-02-22T04:43:33.620Z,99.99
2024-02-22T04:44:33.618Z,99.99
2024-02-22T04:45:33.550Z,99.99
2024-02-22T04:46:33.613Z,99.99
2024-02-22T04:47:33.872Z,99.99
2024-02-22T04:48:33.578Z,99.99
2024-02-22T04:49:33.562Z,99.99
2024-02-22T04:50:33.552Z,99.99
2024-02-22T04:51:33.498Z,99.99
2024-02-22T04:52:33.532Z,99.99
2024-02-22T04:53:33.466Z,99.99
2024-02-22T04:54:39.523Z,99.99
2024-02-22T04:55:33.525Z,99.99
2024-02-22T04:56:33.789Z,99.99
2024-02-22T04:57:33.445Z,99.99
2024-02-22T04:58:33.473Z,99.99
2024-02-22T04:59:33.432Z,99.99
2024-02-22T05:00:33.401Z,99.99
2024-02-22T05:01:33.833Z,99.99
2024-02-22T05:02:33.442Z,99.99
2024-02-22T05:03:33.373Z,99.99
2024-02-22T05:04:33.413Z,99.99
2024-02-22T05:05:33.660Z,99.99
2024-02-22T05:06:33.396Z,99.99
2024-02-22T05:07:33.391Z,99.99
2024-02-22T05:08:36.547Z,99.99
2024-02-22T05:09:33.314Z,99.99
2024-02-22T05:10:33.441Z,99.99
2024-02-22T05:11:33.424Z,99.99
2024-02-22T05:12:33.318Z,99.99
2024-02-22T05:13:33.298Z,99.99
2024-02-22T05:14:33.354Z,99.99
2024-02-22T05:15:33.542Z,99.99
2024-02-22T05:16:33.281Z,99.99
2024-02-22T05:17:33.329Z,99.99
2024-02-22T05:18:33.369Z,99.99
2024-02-22T05:19:33.406Z,99.99
2024-02-22T05:20:33.271Z,99.99
2024-02-22T05:21:33.355Z,99.99
2024-02-22T05:22:33.265Z,99.99
2024-02-22T05:23:33.484Z,99.99
2024-02-22T05:24:33.307Z,99.99
2024-02-22T05:25:33.227Z,99.99
2024-02-22T05:26:33.594Z,99.99
2024-02-22T05:27:33.974Z,99.99
2024-02-22T05:28:33.121Z,99.99
2024-02-22T05:29:33.132Z,99.99
2024-02-22T05:30:33.077Z,99.99
2024-02-22T05:31:33.165Z,99.99
2024-02-22T05:32:33.164Z,99.99
2024-02-22T05:33:33.408Z,99.99
2024-02-22T05:34:33.154Z,99.99
2024-02-22T05:35:33.068Z,99.99
2024-02-22T05:36:33.007Z,99.99
2024-02-22T05:37:35.354Z,99.99
2024-02-22T05:38:33.068Z,99.99
2024-02-22T05:39:32.993Z,99.99
2024-02-22T05:40:33.433Z,99.99
2024-02-22T05:41:32.970Z,99.99
2024-02-22T05:42:32.952Z,99.99
2024-02-22T05:43:32.962Z,99.99
2024-02-22T05:44:33.008Z,99.99
2024-02-22T05:45:32.952Z,99.99
2024-02-22T05:46:32.949Z,99.99
2024-02-22T05:47:33.264Z,99.99
2024-02-22T05:48:32.976Z,99.99
2024-02-22T05:49:32.905Z,99.99
2024-02-22T05:50:32.922Z,99.99
2024-02-22T05:51:32.884Z,99.99
2024-02-22T05:52:32.879Z,99.99
2024-02-22T05:53:32.878Z,99.99
2024-02-22T05:54:33.117Z,99.99
2024-02-22T05:55:32.856Z,99.99
2024-02-22T05:56:32.855Z,99.99
2024-02-22T05:57:32.826Z,99.99
2024-02-22T05:58:32.796Z,99.99
2024-02-22T05:59:32.806Z,99.99
2024-02-22T06:00:32.762Z,99.99
2024-02-22T06:01:33.176Z,99.99
2024-02-22T06:02:33.486Z,99.99
2024-02-22T06:03:32.750Z,99.99
2024-02-22T06:04:32.834Z,99.99
2024-02-22T06:05:32.807Z,99.99
2024-02-22T06:06:32.702Z,99.99
2024-02-22T06:07:32.750Z,99.99
2024-02-22T06:08:33.081Z,99.99
2024-02-22T06:09:32.710Z,99.99
2024-02-22T06:10:32.726Z,99.99
2024-02-22T06:11:32.738Z,99.99
2024-02-22T06:12:32.660Z,99.99
2024-02-22T06:13:32.702Z,99.99
2024-02-22T06:14:32.697Z,99.99
2024-02-22T06:15:32.913Z,99.99
2024-02-22T06:16:32.674Z,99.99
2024-02-22T06:17:32.602Z,99.99
2024-02-22T06:18:34.509Z,99.99
2024-02-22T06:19:32.649Z,99.99
2024-02-22T06:20:32.867Z,99.99
2024-02-22T06:21:32.587Z,99.99
2024-02-22T06:22:32.587Z,99.99
2024-02-22T06:23:32.528Z,99.99
2024-02-22T06:24:32.513Z,99.99
2024-02-22T06:25:32.578Z,99.99
2024-02-22T06:26:32.573Z,99.99
2024-02-22T06:27:32.515Z,99.99
2024-02-22T06:28:32.564Z,99.99
2024-02-22T06:29:32.487Z,99.99
2024-02-22T06:30:32.478Z,99.99
2024-02-22T06:31:32.490Z,99.99
2024-02-22T06:32:32.508Z,99.99
2024-02-22T06:33:32.535Z,99.99
2024-02-22T06:34:32.831Z,99.99
2024-02-22T06:35:32.497Z,99.99
2024-02-22T06:36:32.390Z,99.99
2024-02-22T06:37:32.432Z,99.99
2024-02-22T06:38:32.416Z,99.99
2024-02-22T06:39:32.413Z,99.99
2024-02-22T06:40:32.385Z,99.99
2024-02-22T06:41:32.349Z,99.99
2024-02-22T06:42:32.322Z,99.99
2024-02-22T06:43:32.353Z,99.99
2024-02-22T06:44:32.365Z,99.99
2024-02-22T06:45:32.308Z,99.99
2024-02-22T06:46:32.302Z,99.99
2024-02-22T06:47:32.623Z,99.99
2024-02-22T06:48:32.340Z,99.99
2024-02-22T06:49:33.846Z,99.99
2024-02-22T06:50:32.332Z,99.99
2024-02-22T06:51:32.274Z,99.99
2024-02-22T06:52:32.238Z,99.99
2024-02-22T06:53:32.225Z,99.99
2024-02-22T06:54:32.489Z,99.99
2024-02-22T06:55:32.248Z,99.99
2024-02-22T06:56:32.239Z,99.99
2024-02-22T06:57:32.187Z,99.99
2024-02-22T06:58:32.190Z,99.99
2024-02-22T06:59:32.188Z,99.99
2024-02-22T07:00:32.214Z,99.99
2024-02-22T07:01:32.451Z,99.99
2024-02-22T07:02:32.171Z,99.99
2024-02-22T07:03:32.119Z,99.99
2024-02-22T07:04:32.302Z,99.99
2024-02-22T07:05:32.154Z,99.99
2024-02-22T07:06:32.100Z,99.99
2024-02-22T07:07:32.140Z,99.99
2024-02-22T07:08:32.469Z,99.99
2024-02-22T07:09:32.056Z,99.99
2024-02-22T07:10:32.150Z,99.99
2024-02-22T07:11:32.104Z,99.99
2024-02-22T07:12:32.027Z,99.99
2024-02-22T07:13:32.059Z,99.99
2024-02-22T07:14:32.064Z,99.99
2024-02-22T07:15:32.000Z,99.99
2024-02-22T07:16:32.018Z,99.99
2024-02-22T07:17:32.104Z,99.99
2024-02-22T07:18:32.027Z,99.99
2024-02-22T07:19:32.098Z,99.99
2024-02-22T07:20:32.370Z,99.99
2024-02-22T07:21:31.921Z,99.99
2024-02-22T07:22:31.993Z,99.99
2024-02-22T07:23:31.950Z,99.99
2024-02-22T07:24:31.895Z,99.99
2024-02-22T07:25:31.907Z,99.99
2024-02-22T07:26:32.277Z,99.99
2024-02-22T07:27:31.869Z,99.99
2024-02-22T07:28:31.976Z,99.99
2024-02-22T07:29:31.889Z,99.99
2024-02-22T07:30:31.842Z,99.99
2024-02-22T07:31:31.932Z,99.99
2024-02-22T07:32:31.987Z,99.99
2024-02-22T07:33:32.167Z,99.99
2024-02-22T07:34:31.928Z,99.99
2024-02-22T07:35:31.921Z,99.99
2024-02-22T07:36:31.824Z,99.99
2024-02-22T07:37:31.878Z,99.99
2024-02-22T07:38:31.861Z,99.99
2024-02-22T07:39:31.750Z,99.99
2024-02-22T07:40:31.764Z,99.99
2024-02-22T07:41:31.713Z,99.99
2024-02-22T07:42:31.710Z,99.99
2024-02-22T07:43:31.770Z,99.99
2024-02-22T07:44:31.817Z,99.99
2024-02-22T07:45:31.698Z,99.99
2024-02-22T07:46:32.009Z,99.99
2024-02-22T07:47:31.696Z,99.99
2024-02-22T07:48:31.705Z,99.99
2024-02-22T07:49:31.767Z,99.99
2024-02-22T07:50:31.722Z,99.99
2024-02-22T07:51:33.588Z,99.99
2024-02-22T07:52:31.745Z,99.99
2024-02-22T07:53:31.888Z,99.99
2024-02-22T07:54:31.593Z,99.99
2024-02-22T07:55:31.716Z,99.99
2024-02-22T07:56:33.489Z,99.99
2024-02-22T07:57:31.630Z,99.99
2024-02-22T07:58:31.709Z,99.99
2024-02-22T07:59:31.523Z,99.99
2024-02-22T08:00:31.837Z,99.99
2024-02-22T08:01:31.617Z,99.99
2024-02-22T08:02:31.755Z,99.99
2024-02-22T08:03:31.494Z,99.99
2024-02-22T08:04:31.597Z,99.99
2024-02-22T08:05:31.537Z,99.99
2024-02-22T08:06:31.506Z,99.99
2024-02-22T08:07:31.967Z,99.99
2024-02-22T08:08:31.577Z,99.99
2024-02-22T08:09:31.423Z,99.99
2024-02-22T08:10:31.431Z,99.99
2024-02-22T08:11:31.572Z,99.99
2024-02-22T08:12:31.414Z,99.99
2024-02-22T08:13:31.472Z,99.99
2024-02-22T08:14:31.781Z,99.99
2024-02-22T08:15:31.384Z,99.99
2024-02-22T08:16:31.362Z,99.99
2024-02-22T08:17:31.335Z,99.99
2024-02-22T08:18:31.369Z,99.99
2024-02-22T08:19:31.333Z,99.99
2024-02-22T08:20:31.597Z,99.99
2024-02-22T08:21:31.634Z,99.99
2024-02-22T08:22:31.291Z,99.99
2024-02-22T08:23:31.294Z,99.99
2024-02-22T08:24:31.270Z,99.99
2024-02-22T08:25:31.278Z,99.99
2024-02-22T08:26:31.360Z,99.99
2024-02-22T08:27:31.244Z,99.99
2024-02-22T08:28:31.524Z,99.99
2024-02-22T08:29:31.208Z,99.99
2024-02-22T08:30:31.213Z,99.99
2024-02-22T08:31:31.195Z,99.99
2024-02-22T08:32:31.338Z,99.99
2024-02-22T08:33:31.250Z,99.99
2024-02-22T08:34:31.176Z,99.99
2024-02-22T08:35:31.667Z,99.99
2024-02-22T08:36:31.158Z,99.99
2024-02-22T08:37:31.129Z,99.99
2024-02-22T08:38:31.235Z,99.99
2024-02-22T08:39:31.108Z,99.99
2024-02-22T08:40:38.827Z,99.99
2024-02-22T08:41:31.169Z,99.99
2024-02-22T08:42:31.085Z,99.99
2024-02-22T08:43:31.112Z,99.99
2024-02-22T08:44:31.189Z,99.99
2024-02-22T08:45:31.053Z,99.99
2024-02-22T08:46:32.183Z,99.99
2024-02-22T08:47:31.122Z,99.99
2024-02-22T08:48:31.355Z,99.99
2024-02-22T08:49:31.074Z,99.99
2024-02-22T08:50:31.157Z,99.99
2024-02-22T08:51:30.986Z,99.99
2024-02-22T08:52:30.977Z,99.99
2024-02-22T08:53:31.022Z,99.99
2024-02-22T08:54:30.957Z,99.99
2024-02-22T08:55:31.251Z,99.99
2024-02-22T08:56:31.075Z,99.99
2024-02-22T08:57:39.461Z,99.99
2024-02-22T08:58:30.946Z,99.99
2024-02-22T08:59:30.963Z,99.99
2024-02-22T09:00:30.971Z,99.99
2024-02-22T09:01:30.877Z,99.99
2024-02-22T09:02:30.954Z,99.99
2024-02-22T09:03:30.878Z,99.99
2024-02-22T09:04:30.869Z,99.99
2024-02-22T09:05:31.110Z,99.99
2024-02-22T09:06:30.863Z,99.99
2024-02-22T09:07:30.989Z,99.99
2024-02-22T09:08:31.209Z,99.99
2024-02-22T09:09:30.804Z,99.99
2024-02-22T09:10:30.799Z,99.99
2024-02-22T09:11:30.921Z,99.99
2024-02-22T09:12:30.793Z,99.99
2024-02-22T09:13:30.768Z,99.99
2024-02-22T09:14:31.653Z,99.99
2024-02-22T09:15:30.724Z,99.99
2024-02-22T09:16:30.726Z,99.99
2024-02-22T09:17:30.747Z,99.99
2024-02-22T09:18:30.813Z,99.99
2024-02-22T09:19:30.689Z,99.99
2024-02-22T09:20:30.830Z,99.99
2024-02-22T09:21:30.687Z,99.99
2024-02-22T09:22:30.662Z,99.99
2024-02-22T09:23:30.715Z,99.99
2024-02-22T09:24:30.656Z,99.99
2024-02-22T09:25:30.645Z,99.99
2024-02-22T09:26:31.073Z,99.99
2024-02-22T09:27:30.600Z,99.99
2024-02-22T09:28:30.600Z,99.99
2024-02-22T09:29:30.595Z,99.99
2024-02-22T09:30:30.581Z,99.99
2024-02-22T09:31:30.573Z,99.99
2024-02-22T09:32:30.629Z,99.99
2024-02-22T09:33:30.921Z,99.99
2024-02-22T09:34:30.602Z,99.99
2024-02-22T09:35:30.692Z,99.99
2024-02-22T09:36:30.512Z,99.99
2024-02-22T09:37:30.505Z,99.99
2024-02-22T09:38:30.615Z,99.99
2024-02-22T09:39:30.483Z,99.99
2024-02-22T09:40:30.754Z,99.99
2024-02-22T09:41:30.508Z,99.99
2024-02-22T09:42:30.506Z,99.99
2024-02-22T09:43:30.433Z,99.99
2024-02-22T09:44:30.488Z,99.99
2024-02-22T09:45:30.414Z,99.99
2024-02-22T09:46:30.438Z,99.99
2024-02-22T09:47:30.757Z,99.99
2024-02-22T09:48:30.520Z,99.99
2024-02-22T09:49:30.416Z,99.99
2024-02-22T09:50:30.482Z,99.99
2024-02-22T09:51:30.352Z,99.99
2024-02-22T09:52:30.356Z,99.99
2024-02-22T09:53:30.389Z,99.99
2024-02-22T09:54:30.639Z,99.99
2024-02-22T09:55:30.309Z,99.99
2024-02-22T09:56:30.447Z,99.99
2024-02-22T09:57:30.299Z,99.99
2024-02-22T09:58:30.346Z,99.99
2024-02-22T09:59:30.303Z,99.59
2024-02-22T10:00:30.266Z,98.27
2024-02-22T10:01:30.516Z,98.36
2024-02-22T10:02:30.394Z,99.02
2024-02-22T10:03:30.262Z,99.23
2024-02-22T10:04:30.229Z,98.98
2024-02-22T10:05:30.285Z,98.16
2024-02-22T10:06:30.264Z,97.55
2024-02-22T10:07:30.202Z,97.86
2024-02-22T10:08:30.543Z,97.55
2024-02-22T10:09:30.163Z,97.86
2024-02-22T10:10:30.190Z,98.36
2024-02-22T10:11:30.225Z,98.77
2024-02-22T10:12:31.275Z,98.16
2024-02-22T10:13:30.346Z,97.70
2024-02-22T10:14:30.281Z,98.11
2024-02-22T10:15:30.116Z,98.21
2024-02-22T10:16:30.107Z,98.82
2024-02-22T10:17:30.217Z,98.72
2024-02-22T10:18:30.174Z,98.47
2024-02-22T10:19:30.104Z,97.96
2024-02-22T10:20:30.300Z,97.80
2024-02-22T10:21:30.338Z,97.80
2024-02-22T10:22:30.077Z,97.29
2024-02-22T10:23:30.047Z,97.29
2024-02-22T10:24:30.031Z,98.00
2024-02-22T10:25:30.000Z,97.90
2024-02-22T10:26:30.132Z,97.90
2024-02-22T10:27:29.972Z,97.75
2024-02-22T10:28:30.275Z,97.24
2024-02-22T10:29:29.992Z,96.84
2024-02-22T10:30:29.953Z,96.63
2024-02-22T10:31:29.944Z,96.59
2024-02-22T10:32:32.307Z,95.31
2024-02-22T10:33:29.991Z,95.36
2024-02-22T10:34:30.022Z,95.97
2024-02-22T10:35:30.208Z,94.45
2024-02-22T10:36:29.890Z,94.34
2024-02-22T10:37:29.896Z,94.85
2024-02-22T10:38:29.976Z,94.70
2024-02-22T10:39:29.852Z,95.20
2024-02-22T10:40:29.848Z,95.31
2024-02-22T10:41:29.850Z,95.00
2024-02-22T10:42:30.145Z,94.65
2024-02-22T10:43:29.825Z,94.45
2024-02-22T10:44:29.894Z,94.04
2024-02-22T10:45:29.799Z,94.34
2024-02-22T10:46:29.804Z,94.04
2024-02-22T10:47:29.824Z,94.45
2024-02-22T10:48:29.835Z,94.45
2024-02-22T10:49:29.756Z,93.93
2024-02-22T10:50:29.857Z,93.52
2024-02-22T10:51:29.744Z,94.04
2024-02-22T10:52:29.720Z,94.55
2024-02-22T10:53:29.702Z,94.45
2024-02-22T10:54:29.699Z,94.24
2024-02-22T10:55:29.966Z,94.65
2024-02-22T10:56:29.772Z,94.49
2024-02-22T10:57:29.676Z,94.59
2024-02-22T10:58:29.655Z,95.31
2024-02-22T10:59:29.667Z,95.31
2024-02-22T11:00:29.715Z,95.20
2024-02-22T11:01:29.645Z,95.51
2024-02-22T11:02:29.719Z,95.00
2024-02-22T11:03:29.602Z,95.41
2024-02-22T11:04:29.632Z,95.72
2024-02-22T11:05:29.605Z,95.00
2024-02-22T11:06:29.619Z,95.61
2024-02-22T11:07:29.588Z,95.35
2024-02-22T11:08:29.624Z,95.45
2024-02-22T11:09:29.534Z,95.56
2024-02-22T11:10:29.538Z,95.96
2024-02-22T11:11:29.597Z,95.45
2024-02-22T11:12:29.518Z,95.65
2024-02-22T11:13:29.509Z,95.65
2024-02-22T11:14:31.747Z,96.17
2024-02-22T11:15:29.482Z,96.37
2024-02-22T11:16:29.462Z,96.58
2024-02-22T11:17:29.526Z,96.92
2024-02-22T11:18:29.587Z,97.54
2024-02-22T11:19:29.436Z,98.36
2024-02-22T11:20:29.794Z,99.38
2024-02-22T11:21:29.427Z,99.99
2024-02-22T11:22:29.455Z,99.99
2024-02-22T11:23:29.504Z,99.99
2024-02-22T11:24:29.493Z,99.99
2024-02-22T11:25:29.395Z,99.99
2024-02-22T11:26:29.792Z,99.99
2024-02-22T11:27:29.382Z,99.99
2024-02-22T11:28:29.344Z,99.99
2024-02-22T11:29:29.394Z,99.99
2024-02-22T11:30:29.313Z,99.99
2024-02-22T11:31:29.336Z,99.99
2024-02-22T11:32:29.472Z,99.99
2024-02-22T11:33:29.662Z,99.99
2024-02-22T11:34:29.278Z,99.99
2024-02-22T11:35:29.377Z,99.99
2024-02-22T11:36:29.256Z,99.99
2024-02-22T11:37:29.259Z,99.99
2024-02-22T11:38:29.433Z,99.99
2024-02-22T11:39:29.236Z,99.99
2024-02-22T11:40:29.506Z,99.99
2024-02-22T11:41:29.233Z,99.99
2024-02-22T11:42:29.205Z,99.99
2024-02-22T11:43:29.215Z,99.99
2024-02-22T11:44:29.281Z,99.99
2024-02-22T11:45:29.178Z,99.99
2024-02-22T11:46:29.145Z,99.99
2024-02-22T11:47:29.583Z,99.99
2024-02-22T11:48:29.187Z,99.99
2024-02-22T11:49:29.124Z,99.99
2024-02-22T11:50:29.431Z,99.99
2024-02-22T11:51:29.102Z,99.84
2024-02-22T11:52:29.092Z,99.64
2024-02-22T11:53:29.138Z,99.84
2024-02-22T11:54:29.346Z,99.99
2024-02-22T11:55:29.325Z,99.74
2024-02-22T11:56:29.140Z,99.84
2024-02-22T11:57:29.062Z,99.74
2024-02-22T11:58:29.044Z,99.99
2024-02-22T11:59:29.088Z,99.84
2024-02-22T12:00:29.046Z,99.74
2024-02-22T12:01:29.311Z,99.64
2024-02-22T12:02:29.066Z,99.84
2024-02-22T12:03:28.989Z,99.99
2024-02-22T12:04:28.966Z,99.95
2024-02-22T12:05:29.232Z,99.99
2024-02-22T12:06:29.049Z,99.99
2024-02-22T12:07:28.981Z,99.99
2024-02-22T12:08:29.295Z,99.99
2024-02-22T12:09:28.912Z,99.99
2024-02-22T12:10:28.904Z,99.99
2024-02-22T12:11:29.009Z,99.99
2024-02-22T12:12:28.869Z,99.99
2024-02-22T12:13:28.883Z,99.99
2024-02-22T12:14:28.943Z,99.99
2024-02-22T12:15:29.538Z,99.99
2024-02-22T12:16:28.830Z,99.99
2024-02-22T12:17:28.918Z,99.99
2024-02-22T12:18:28.901Z,99.99
2024-02-22T12:19:28.876Z,99.99
2024-02-22T12:20:28.913Z,99.99
2024-02-22T12:21:28.793Z,99.99
2024-02-22T12:22:29.068Z,99.99
2024-02-22T12:23:28.815Z,99.99
2024-02-22T12:24:28.769Z,99.99
2024-02-22T12:25:28.776Z,99.84
2024-02-22T12:26:28.858Z,99.64
2024-02-22T12:27:28.736Z,99.49
2024-02-22T12:28:28.704Z,99.08
2024-02-22T12:29:28.989Z,98.98
2024-02-22T12:30:28.700Z,98.98
2024-02-22T12:31:28.716Z,98.68
2024-02-22T12:32:28.883Z,98.32
2024-02-22T12:33:28.732Z,98.02
2024-02-22T12:34:28.713Z,97.81
2024-02-22T12:35:28.736Z,97.50
2024-02-22T12:36:28.930Z,97.09
2024-02-22T12:37:28.632Z,96.64
2024-02-22T12:38:28.723Z,96.64
2024-02-22T12:39:28.595Z,96.54
2024-02-22T12:40:28.583Z,96.03
2024-02-22T12:41:28.648Z,95.78
2024-02-22T12:42:28.567Z,95.48
2024-02-22T12:43:28.833Z,95.07
2024-02-22T12:44:28.678Z,95.48
2024-02-22T12:45:28.545Z,95.37
2024-02-22T12:46:28.517Z,94.97
2024-02-22T12:47:28.579Z,95.17
2024-02-22T12:48:28.607Z,95.48
2024-02-22T12:49:28.503Z,95.17
2024-02-22T12:50:28.888Z,95.28
2024-02-22T12:51:28.498Z,95.17
2024-02-22T12:52:28.460Z,95.28
2024-02-22T12:53:28.470Z,95.28